createdAt,value
2017-05-20T00:02:03.043Z,48.4
2017-05-20T00:07:03.607Z,48.4
2017-05-20T00:12:03.595Z,48.4
2017-05-20T00:17:03.299Z,48.5
2017-05-20T00:22:03.583Z,48.5
2017-05-20T00:27:03.368Z,48.4
2017-05-20T00:32:03.144Z,48.4
2017-05-20T00:37:03.309Z,48.3
2017-05-20T00:42:03.103Z,48.2
2017-05-20T00:47:03.939Z,48.2
2017-05-20T00:52:03.937Z,48.2
2017-05-20T00:57:03.673Z,48.2
2017-05-20T01:02:03.586Z,48.1
2017-05-20T01:07:03.691Z,47.7
2017-05-20T01:12:03.548Z,47.7
2017-05-20T01:17:03.314Z,47.6
2017-05-20T01:22:03.661Z,47.5
2017-05-20T01:27:03.452Z,47.5
2017-05-20T01:32:03.533Z,47.5
2017-05-20T01:37:03.763Z,47.1
2017-05-20T01:42:03.493Z,47.0
2017-05-20T01:47:03.612Z,47.2
2017-05-20T01:52:03.416Z,47.2
2017-05-20T01:57:03.382Z,47.2
2017-05-20T02:02:03.175Z,47.2
2017-05-20T02:07:03.782Z,47.1
2017-05-20T02:12:03.809Z,47.0
2017-05-20T02:17:03.771Z,46.9
2017-05-20T02:22:03.625Z,46.9
2017-05-20T02:27:03.459Z,47.1
2017-05-20T02:32:03.423Z,47.1
2017-05-20T02:37:03.374Z,47.1
2017-05-20T02:42:03.554Z,47.0
2017-05-20T02:47:03.847Z,47.2
2017-05-20T02:52:03.299Z,47.1
2017-05-20T02:57:03.465Z,47.1
2017-05-20T03:02:10.103Z,47.2
2017-05-20T03:07:03.319Z,47.1
2017-05-20T03:12:03.852Z,47.0
2017-05-20T03:22:03.812Z,47.0
2017-05-20T03:27:03.281Z,46.8
2017-05-20T03:32:24.836Z,46.8
2017-05-20T03:37:03.465Z,46.7
2017-05-20T03:42:03.905Z,46.8
2017-05-20T03:47:23.945Z,46.8
2017-05-20T03:52:03.794Z,46.8
2017-05-20T03:57:03.116Z,46.9
2017-05-20T04:02:21.992Z,46.9
2017-05-20T04:07:03.947Z,47.0
2017-05-20T04:12:03.365Z,46.8
2017-05-20T04:17:25.052Z,46.8
2017-05-20T04:22:03.123Z,46.8
2017-05-20T04:27:03.551Z,46.3
2017-05-20T04:32:24.359Z,46.3
2017-05-20T04:37:03.211Z,46.5
2017-05-20T04:42:03.528Z,46.4
2017-05-20T04:47:22.541Z,46.3
2017-05-20T04:52:03.074Z,46.4
2017-05-20T04:57:03.394Z,46.4
2017-05-20T05:02:23.348Z,46.3
2017-05-20T05:07:03.262Z,46.0
2017-05-20T05:12:03.669Z,45.8
2017-05-20T05:22:03.351Z,46.0
2017-05-20T05:27:03.822Z,45.9
2017-05-20T05:37:03.673Z,46.0
2017-05-20T05:42:03.931Z,45.6
2017-05-20T05:47:28.305Z,45.6
2017-05-20T05:52:03.291Z,45.4
2017-05-20T05:57:03.594Z,45.4
2017-05-20T06:07:03.647Z,46.0
2017-05-20T06:12:03.155Z,46.0
2017-05-20T06:17:19.358Z,46.0
2017-05-20T06:22:03.948Z,45.6
2017-05-20T06:27:03.339Z,45.9
2017-05-20T06:32:28.832Z,46.4
2017-05-20T06:37:03.938Z,46.5
2017-05-20T06:42:03.337Z,46.4
2017-05-20T06:52:03.179Z,46.5
2017-05-20T06:57:03.569Z,46.6
2017-05-20T07:02:23.124Z,46.7
2017-05-20T07:07:03.871Z,46.7
2017-05-20T07:12:03.599Z,47.3
2017-05-20T07:17:28.957Z,47.3
2017-05-20T07:22:03.724Z,47.3
2017-05-20T07:27:03.192Z,47.3
2017-05-20T07:32:28.602Z,47.2
2017-05-20T07:37:03.783Z,47.6
2017-05-20T07:42:03.549Z,47.7
2017-05-20T07:47:29.410Z,47.8
2017-05-20T07:52:03.671Z,47.8
2017-05-20T07:57:03.052Z,47.7
2017-05-20T08:02:24.264Z,47.6
2017-05-20T08:07:03.428Z,47.3
2017-05-20T08:12:03.848Z,47.3
2017-05-20T08:17:24.756Z,48.1
2017-05-20T08:22:03.144Z,47.9
2017-05-20T08:27:03.588Z,47.9
2017-05-20T08:32:24.384Z,47.8
2017-05-20T08:37:03.727Z,47.7
2017-05-20T08:42:03.140Z,47.4
2017-05-20T08:47:32.856Z,47.7
2017-05-20T08:52:03.148Z,48.0
2017-05-20T08:57:03.685Z,48.2
2017-05-20T09:02:29.101Z,48.2
2017-05-20T09:07:03.440Z,48.0
2017-05-20T09:12:03.947Z,47.9
2017-05-20T09:17:23.552Z,47.6
2017-05-20T09:22:03.751Z,46.8
2017-05-20T09:27:03.060Z,46.8
2017-05-20T09:32:23.324Z,46.2
2017-05-20T09:37:03.165Z,46.2
2017-05-20T09:42:03.594Z,45.8
2017-05-20T09:47:23.912Z,45.8
2017-05-20T09:52:03.695Z,45.7
2017-05-20T09:57:03.175Z,46.9
2017-05-20T10:02:27.787Z,47.3
2017-05-20T10:07:03.934Z,47.6
2017-05-20T10:12:03.647Z,47.6
2017-05-20T10:17:33.564Z,46.9
2017-05-20T10:22:03.364Z,46.4
2017-05-20T10:27:03.796Z,46.3
2017-05-20T10:32:26.838Z,46.8
2017-05-20T10:37:03.880Z,46.7
2017-05-20T10:42:03.205Z,46.0
2017-05-20T10:52:03.127Z,47.5
2017-05-20T10:57:03.481Z,47.1
2017-05-20T11:02:23.877Z,47.1
2017-05-20T11:07:03.755Z,47.1
2017-05-20T11:12:03.312Z,46.2
2017-05-20T11:17:25.652Z,46.2
2017-05-20T11:22:03.972Z,45.6
2017-05-20T11:27:03.375Z,45.5
2017-05-20T11:32:23.814Z,45.8
2017-05-20T11:37:03.651Z,45.6
2017-05-20T11:42:03.174Z,45.9
2017-05-20T11:47:27.658Z,45.8
2017-05-20T11:52:03.385Z,46.1
2017-05-20T11:57:03.727Z,46.2
2017-05-20T12:02:23.326Z,45.7
2017-05-20T12:07:03.334Z,46.4
2017-05-20T12:12:03.800Z,46.3
2017-05-20T12:17:28.591Z,46.6
2017-05-20T12:22:03.280Z,46.7
2017-05-20T12:27:03.524Z,46.8
2017-05-20T12:32:30.525Z,46.3
2017-05-20T12:37:03.042Z,46.3
2017-05-20T12:42:03.478Z,46.4
2017-05-20T12:47:28.874Z,46.8
2017-05-20T12:52:03.164Z,46.4
2017-05-20T12:57:03.655Z,46.4
2017-05-20T13:02:27.690Z,46.6
2017-05-20T13:07:03.598Z,46.4
2017-05-20T13:12:03.118Z,46.1
2017-05-20T13:17:28.695Z,46.0
2017-05-20T13:22:03.950Z,45.5
2017-05-20T13:27:03.383Z,45.0
2017-05-20T13:32:28.155Z,44.5
2017-05-20T13:37:04.005Z,44.5
2017-05-20T13:42:03.354Z,44.1
2017-05-20T13:47:28.376Z,44.0
2017-05-20T13:52:03.697Z,44.1
2017-05-20T13:57:03.092Z,44.1
2017-05-20T14:02:25.566Z,44.1
2017-05-20T14:07:03.667Z,44.1
2017-05-20T14:12:03.362Z,45.4
2017-05-20T14:17:29.902Z,45.6
2017-05-20T14:22:03.710Z,47.1
2017-05-20T14:27:03.149Z,47.3
2017-05-20T14:32:27.964Z,48.1
2017-05-20T14:37:03.991Z,48.1
2017-05-20T14:42:03.318Z,48.7
2017-05-20T14:47:28.556Z,48.9
2017-05-20T14:52:03.753Z,49.5
2017-05-20T14:57:03.160Z,49.4
2017-05-20T15:02:27.923Z,49.2
2017-05-20T15:07:03.481Z,49.1
2017-05-20T15:12:03.834Z,48.7
2017-05-20T15:17:20.938Z,48.7
2017-05-20T15:22:03.906Z,48.2
2017-05-20T15:27:03.232Z,47.8
2017-05-20T15:32:23.403Z,47.2
2017-05-20T15:37:03.682Z,47.2
2017-05-20T15:42:03.005Z,47.2
2017-05-20T15:47:28.483Z,47.2
2017-05-20T15:52:03.792Z,47.2
2017-05-20T15:57:03.753Z,47.1
2017-05-20T16:02:19.090Z,47.0
2017-05-20T16:07:03.629Z,46.7
2017-05-20T16:12:03.194Z,46.5
2017-05-20T16:17:27.046Z,46.8
2017-05-20T16:22:03.606Z,47.1
2017-05-20T16:27:03.834Z,47.0
2017-05-20T16:32:21.604Z,39.6
2017-05-20T16:37:03.398Z,39.6
2017-05-20T16:42:03.318Z,36.0
2017-05-20T16:47:24.061Z,36.0
2017-05-20T16:52:03.180Z,41.9
2017-05-20T16:57:03.558Z,41.5
2017-05-20T17:02:26.678Z,42.0
2017-05-20T17:07:03.385Z,43.3
2017-05-20T17:12:03.870Z,46.2
2017-05-20T17:17:24.840Z,46.1
2017-05-20T17:22:03.449Z,46.9
2017-05-20T17:27:03.867Z,46.9
2017-05-20T17:32:21.728Z,38.6
2017-05-20T17:37:03.467Z,38.6
2017-05-20T17:42:03.790Z,37.2
2017-05-20T17:47:15.765Z,37.2
2017-05-20T17:52:03.296Z,33.2
2017-05-20T17:57:03.611Z,32.8
2017-05-20T18:02:26.948Z,39.5
2017-05-20T18:07:03.496Z,44.3
2017-05-20T18:12:03.963Z,46.3
2017-05-20T18:17:26.592Z,47.1
2017-05-20T18:22:03.729Z,47.1
2017-05-20T18:27:04.051Z,47.7
2017-05-20T18:32:27.901Z,47.9
2017-05-20T18:37:03.446Z,47.8
2017-05-20T18:42:03.751Z,47.9
2017-05-20T18:47:19.754Z,48.0
2017-05-20T18:52:03.880Z,48.0
2017-05-20T18:57:03.187Z,48.0
2017-05-20T19:02:23.883Z,48.1
2017-05-20T19:07:03.547Z,48.6
2017-05-20T19:12:03.181Z,48.3
2017-05-20T19:17:22.344Z,48.5
2017-05-20T19:22:03.432Z,48.6
2017-05-20T19:27:03.650Z,48.6
2017-05-20T19:32:24.169Z,48.6
2017-05-20T19:37:03.390Z,48.5
2017-05-20T19:42:03.628Z,48.4
2017-05-20T19:47:14.882Z,48.3
2017-05-20T19:52:03.112Z,48.4
2017-05-20T19:57:03.402Z,48.6
2017-05-20T20:02:05.424Z,48.6
2017-05-20T20:07:03.392Z,48.4
2017-05-20T20:12:03.746Z,48.3
2017-05-20T20:17:11.615Z,48.1
2017-05-20T20:22:03.336Z,48.0
2017-05-20T20:27:03.576Z,48.1
2017-05-20T20:32:03.851Z,48.1
2017-05-20T20:37:03.267Z,48.2
2017-05-20T20:42:03.484Z,48.2
2017-05-20T20:47:03.710Z,48.3
2017-05-20T20:52:03.041Z,48.1
2017-05-20T20:57:03.382Z,48.1
2017-05-20T21:02:03.601Z,48.2
2017-05-20T21:07:03.928Z,48.2
2017-05-20T21:12:03.444Z,48.1
2017-05-20T21:17:03.732Z,48.1
2017-05-20T21:22:03.997Z,48.1
2017-05-20T21:27:03.366Z,48.1
2017-05-20T21:32:03.562Z,48.0
2017-05-20T21:37:03.788Z,48.1
2017-05-20T21:42:03.085Z,47.9
2017-05-20T21:47:03.411Z,47.9
2017-05-20T21:52:03.602Z,48.0
2017-05-20T21:57:03.846Z,48.0
2017-05-20T22:02:03.282Z,47.9
2017-05-20T22:07:03.562Z,47.9
2017-05-20T22:12:03.809Z,47.8
2017-05-20T22:22:03.934Z,47.8
2017-05-20T22:27:03.228Z,47.8
2017-05-20T22:32:03.232Z,47.7
2017-05-20T22:37:03.489Z,47.7
2017-05-20T22:42:03.478Z,47.7
2017-05-20T22:47:03.551Z,47.6
2017-05-20T22:52:03.759Z,47.6
2017-05-20T22:57:03.376Z,47.4
2017-05-20T23:02:03.310Z,47.5
2017-05-20T23:07:03.416Z,47.4
2017-05-20T23:12:03.402Z,47.5
2017-05-20T23:17:04.268Z,47.4
2017-05-20T23:22:03.098Z,47.4
2017-05-20T23:27:03.794Z,47.3
2017-05-20T23:32:03.613Z,47.4
2017-05-20T23:37:03.820Z,47.3
2017-05-20T23:42:03.449Z,47.2
2017-05-20T23:47:03.122Z,47.4
2017-05-20T23:52:03.689Z,47.3
2017-05-20T23:57:03.491Z,47.2
